PABRPAKU

Guest
Details From PABR - WILEY POST WILL ROGERS MEM
To PAKU - Ugnu-Kuparuk
Flight Number -
Tags generated
Created
Modified
Stats Distance 153 nm / 283 km
Max Altitude 17,700 ft / 5,395 m
Waypoints 3
Social Downloads 0
Likes 0
Share VATSIM

Download

Looking for another format? Having issues loading an existing format? Contact us
Advertisement - Login to hide

Notes

Basic altitude profile: - Ascent Rate: 2500ft/min - Ascent Speed: 250kts - Cruise Altitude: 35000ft - Cruise Speed: 420kts - Descent Rate: 1500ft/min - Descent Speed: 250kts Options: - Use NATs: yes - Use PACOTS: yes - Use low airways: yes - Use high airways: yes

Route

PABR OKIKE PAKU

ID Type Via Altitude Latitude Longitude Leg Dist Tot Dist Heading (true) Name
O PABR APT - 0 ft / 0 m 71.28466˚ -156.76875˚ - 0 nm - WILEY POST WILL ROGERS MEM
OKIKE FIX - 17,700 ft / 5,395 m 71.01137˚ -154.35326˚ 49 nm 49 nm 108° / 110° -
O PAKU APT - 0 ft / 0 m 70.33082˚ -149.59755˚ 102 nm 152 nm 111° / 116° Ugnu-Kuparuk

Altitude Profile

Advertisement - Login to hide

PABR

Details ICAO PABR (BRW)
Name WILEY POST WILL ROGERS MEM
Region USA (Alaska)
Timezone America/Anchorage (UTC-9.0)
Stats Elevation 44 ft / 13 m (AMSL)
Location 71.284660° -156.768746°
Runways 1
Magnetic Variation 14.520° E

METAR

PABR 161853Z 05023G30KT 2 1/2SM BLSN OVC012 M21/M24 A2970

Decode

TAF

TAF PABR 161720Z 1618/1718 05022KT 1SM -SN BLSN BR BKN005 OVC100 FM170100 06020KT 1 1/2SM -SN BLSN OVC007

Decode

Departure Runways

ID Width Length Bearing (true) Bearing (mag) Surface Threshold Offset Overrun Length
07 151 ft / 46 m 7,107 ft / 2,166 m 91.11° 76.59° Asphalt 0 ft / 0 m 0 ft / 0 m
25 151 ft / 46 m 7,107 ft / 2,166 m 271.17° 256.65° Asphalt 0 ft / 0 m 0 ft / 0 m

PAKU

Details ICAO PAKU (UUK)
Name Ugnu-Kuparuk
Region USA (Alaska)
Timezone America/Anchorage (UTC-9.0)
Stats Elevation 67 ft / 20 m (AMSL)
Location 70.330819° -149.597555°
Runways 1
Magnetic Variation 17.564° E

METAR

PAKU 161845Z 06026G31KT 1/2SM R06/3000FT BLSN BKN015 OVC028 M16/M20 A2951

Decode

TAF

Not found

Destination Runways

ID Width Length Bearing (true) Bearing (mag) Surface Threshold Offset Overrun Length
05 130 ft / 40 m 6,006 ft / 1,831 m 78.98° 61.42° Gravel 0 ft / 0 m 0 ft / 0 m
23 130 ft / 40 m 6,006 ft / 1,831 m 259.02° 241.46° Gravel 0 ft / 0 m 0 ft / 0 m

Approach Navaids

Runway Type Ident Frequency Range Bearing (true) Bearing (mag) Slope Elevation
05 Localiser IIII 109.70 MHz 18 nm / 33 km 107.90° 90.34° - 67 ft / 20 m (AMSL)